Time;durP1;ratioP1;P1;durP2;ratioP2;P2;SDS_P1;SDS_P2;PMS_P1;PMS_P2;Temp;Humidity;BMP_temperature;BMP_pressure;BME280_temperature;BME280_humidity;BME280_pressure;Samples;Min_cycle;Max_cycle;Signal;HPM_P1;HPM_P2
2021/12/24 00:01:33;;;;;;;1.85;1.20;;;;;;;;;;7329560;19;153479;-15
2021/12/24 00:04:09;;;;;;;2.13;0.90;;;;;;;;;;7327107;19;161631;-14
2021/12/24 00:06:44;;;;;;;1.15;0.70;;;;;;;;;;7328844;19;162722;-14
2021/12/24 00:09:21;;;;;;;1.33;0.90;;;;;;;;;;7329386;19;153946;-13
2021/12/24 00:11:56;;;;;;;0.88;0.88;;;;;;;;;;7328965;19;153548;-14
2021/12/24 00:14:29;;;;;;;0.90;0.90;;;;;;;;;;7328891;19;162069;-14
2021/12/24 00:17:04;;;;;;;0.90;0.90;;;;;;;;;;7335446;19;162364;-15
2021/12/24 00:19:46;;;;;;;1.08;0.93;;;;;;;;;;7334941;19;153974;-14
2021/12/24 00:22:41;;;;;;;1.10;1.00;;;;;;;;;;7335710;19;153491;-14
2021/12/24 00:36:09;;;;;;;1.13;0.90;;;;;;;;;;7334268;19;162029;-14
2021/12/24 00:38:41;;;;;;;0.80;0.80;;;;;;;;;;7335344;19;162623;-14
2021/12/24 00:41:13;;;;;;;0.80;0.80;;;;;;;;;;7334518;19;154009;-13
2021/12/24 00:43:44;;;;;;;2.53;1.00;;;;;;;;;;7332085;19;153538;-13
2021/12/24 00:46:15;;;;;;;0.88;0.88;;;;;;;;;;7334992;19;161798;-13
2021/12/24 00:48:48;;;;;;;1.08;1.08;;;;;;;;;;7333728;19;162463;-14
2021/12/24 00:51:30;;;;;;;0.63;0.63;;;;;;;;;;7334011;19;153995;-14
2021/12/24 00:56:45;;;;;;;0.77;0.77;;;;;;;;;;7334604;19;161835;-14
2021/12/24 00:59:19;;;;;;;1.25;1.25;;;;;;;;;;7332853;19;162638;-14
2021/12/24 01:01:51;;;;;;;1.00;1.00;;;;;;;;;;7334539;19;154036;-13
2021/12/24 01:04:22;;;;;;;0.80;0.80;;;;;;;;;;7331644;19;153597;-14
2021/12/24 01:06:58;;;;;;;1.13;0.85;;;;;;;;;;7333821;19;161892;-14
2021/12/24 01:09:30;;;;;;;0.85;0.85;;;;;;;;;;7333682;19;162308;-13
2021/12/24 01:12:01;;;;;;;0.80;0.80;;;;;;;;;;7332926;19;154051;-14
2021/12/24 01:14:32;;;;;;;0.70;0.70;;;;;;;;;;7333914;19;153494;-14
2021/12/24 01:17:11;;;;;;;0.70;0.70;;;;;;;;;;7332281;19;162417;-13
2021/12/24 01:19:48;;;;;;;1.30;1.20;;;;;;;;;;7332428;19;162667;-14
2021/12/24 01:22:58;;;;;;;0.80;0.80;;;;;;;;;;7334080;19;153836;-13
2021/12/24 01:25:32;;;;;;;0.60;0.60;;;;;;;;;;7329233;19;153805;-13
2021/12/24 01:28:28;;;;;;;0.80;0.80;;;;;;;;;;7332013;19;161695;-13
2021/12/24 01:39:25;;;;;;;0.88;0.88;;;;;;;;;;7331629;19;162307;-13
2021/12/24 01:44:42;;;;;;;0.80;0.80;;;;;;;;;;7333244;19;154168;-14
2021/12/24 01:47:13;;;;;;;0.77;0.77;;;;;;;;;;7334783;19;153490;-13
2021/12/24 01:49:46;;;;;;;0.82;0.82;;;;;;;;;;7334377;19;162164;-13
2021/12/24 01:52:19;;;;;;;0.80;0.80;;;;;;;;;;7334530;19;162366;-13
2021/12/24 01:55:00;;;;;;;0.73;0.73;;;;;;;;;;7334991;19;154093;-13
2021/12/24 01:57:32;;;;;;;0.60;0.60;;;;;;;;;;7334873;19;153795;-13
2021/12/24 02:00:03;;;;;;;0.95;0.90;;;;;;;;;;7334165;19;161935;-14
2021/12/24 02:02:43;;;;;;;0.80;0.80;;;;;;;;;;7335180;19;162628;-14
2021/12/24 02:05:17;;;;;;;0.80;0.80;;;;;;;;;;7332809;19;154466;-15
2021/12/24 02:07:49;;;;;;;1.23;1.13;;;;;;;;;;7335264;19;153540;-14
2021/12/24 02:10:23;;;;;;;0.65;0.65;;;;;;;;;;7333899;19;161962;-14
2021/12/24 02:12:56;;;;;;;0.82;0.82;;;;;;;;;;7335156;19;163217;-14
2021/12/24 02:15:42;;;;;;;0.70;0.70;;;;;;;;;;7334123;19;154024;-14
2021/12/24 02:18:43;;;;;;;1.08;1.08;;;;;;;;;;7334079;19;153564;-13
2021/12/24 02:29:28;;;;;;;0.80;0.80;;;;;;;;;;7334335;19;153603;-14
2021/12/24 02:32:02;;;;;;;0.80;0.80;;;;;;;;;;7334395;19;161822;-15
2021/12/24 02:34:34;;;;;;;0.75;0.75;;;;;;;;;;7333746;19;162568;-14
2021/12/24 02:37:08;;;;;;;0.60;0.60;;;;;;;;;;7332560;19;154004;-14
2021/12/24 02:39:39;;;;;;;0.82;0.82;;;;;;;;;;7333528;19;153596;-14
2021/12/24 02:42:16;;;;;;;0.90;0.90;;;;;;;;;;7333588;19;161808;-14
2021/12/24 02:44:51;;;;;;;0.80;0.80;;;;;;;;;;7332621;19;162512;-14
2021/12/24 02:47:56;;;;;;;1.00;1.00;;;;;;;;;;7334947;19;154794;-15
2021/12/24 02:55:58;;;;;;;0.90;0.90;;;;;;;;;;7334238;19;162273;-14
2021/12/24 02:58:30;;;;;;;0.65;0.65;;;;;;;;;;7334766;19;153984;-14
2021/12/24 03:01:01;;;;;;;1.40;0.95;;;;;;;;;;7334043;19;153582;-15
2021/12/24 03:03:32;;;;;;;0.90;0.90;;;;;;;;;;7332849;19;161837;-15
2021/12/24 03:06:04;;;;;;;0.90;0.90;;;;;;;;;;7330535;19;162420;-15
2021/12/24 03:08:38;;;;;;;0.80;0.80;;;;;;;;;;7333996;19;154054;-15
2021/12/24 03:11:10;;;;;;;0.93;0.93;;;;;;;;;;7333775;19;153575;-15
2021/12/24 03:13:41;;;;;;;0.85;0.70;;;;;;;;;;7331807;19;161933;-14
2021/12/24 03:16:13;;;;;;;0.70;0.70;;;;;;;;;;7331716;19;162421;-14
2021/12/24 03:18:46;;;;;;;0.70;0.70;;;;;;;;;;7334056;19;154279;-15
2021/12/24 03:21:21;;;;;;;0.70;0.70;;;;;;;;;;7333390;19;153717;-15
2021/12/24 03:26:41;;;;;;;0.68;0.68;;;;;;;;;;7331070;19;162631;-15
2021/12/24 03:29:16;;;;;;;0.90;0.90;;;;;;;;;;7331958;19;154367;-14
2021/12/24 03:31:48;;;;;;;0.73;0.73;;;;;;;;;;7332564;19;153562;-14
2021/12/24 03:34:22;;;;;;;0.80;0.80;;;;;;;;;;7332885;19;161962;-14
2021/12/24 03:36:54;;;;;;;0.70;0.70;;;;;;;;;;7330477;19;162699;-14
2021/12/24 03:39:33;;;;;;;1.05;1.00;;;;;;;;;;7332335;19;154062;-14
2021/12/24 03:42:07;;;;;;;0.70;0.70;;;;;;;;;;7331589;19;153564;-14
2021/12/24 03:44:44;;;;;;;0.80;0.80;;;;;;;;;;7332645;19;161890;-15
2021/12/24 03:47:18;;;;;;;1.05;0.93;;;;;;;;;;7328741;19;162430;-14
2021/12/24 03:50:05;;;;;;;0.80;0.80;;;;;;;;;;7336621;19;154313;-15
2021/12/24 03:53:01;;;;;;;0.70;0.70;;;;;;;;;;7338232;19;153821;-15
2021/12/24 03:55:32;;;;;;;0.75;0.75;;;;;;;;;;7337665;19;161940;-15
2021/12/24 03:58:03;;;;;;;0.80;0.80;;;;;;;;;;7337474;19;162404;-14
2021/12/24 04:00:53;;;;;;;0.80;0.80;;;;;;;;;;7339138;19;154040;-14
2021/12/24 04:03:24;;;;;;;0.98;0.98;;;;;;;;;;7339436;19;153484;-14
2021/12/24 04:06:02;;;;;;;0.70;0.70;;;;;;;;;;7337741;19;161965;-15
2021/12/24 04:08:53;;;;;;;1.13;0.88;;;;;;;;;;7338843;19;162890;-15
2021/12/24 04:11:48;;;;;;;0.80;0.80;;;;;;;;;;7337680;19;153970;-14
2021/12/24 04:14:20;;;;;;;0.90;0.90;;;;;;;;;;7337956;19;153360;-15
2021/12/24 04:16:51;;;;;;;0.80;0.80;;;;;;;;;;7337193;19;161914;-14
2021/12/24 04:24:50;;;;;;;0.70;0.70;;;;;;;;;;7337103;19;163155;-14
2021/12/24 04:25:03;;;;;;;0.70;0.70;;;;;;;;;;7337713;19;153614;-14
2021/12/24 04:27:39;;;;;;;0.70;0.70;;;;;;;;;;7334733;19;162000;-14
2021/12/24 04:30:15;;;;;;;0.80;0.80;;;;;;;;;;7336473;19;162457;-14
2021/12/24 04:33:00;;;;;;;0.68;0.68;;;;;;;;;;7336922;19;154031;-15
2021/12/24 04:35:40;;;;;;;0.90;0.90;;;;;;;;;;7336974;19;153529;-14
2021/12/24 04:51:59;;;;;;;0.77;0.77;;;;;;;;;;7335990;19;163123;-15
2021/12/24 05:02:56;;;;;;;0.95;0.95;;;;;;;;;;7336499;19;162646;-15
2021/12/24 05:05:38;;;;;;;0.68;0.68;;;;;;;;;;7337208;19;154401;-17
2021/12/24 05:08:21;;;;;;;0.70;0.70;;;;;;;;;;7337098;19;153570;-16
2021/12/24 05:10:55;;;;;;;0.70;0.70;;;;;;;;;;7335923;19;161884;-17
2021/12/24 05:13:28;;;;;;;0.80;0.80;;;;;;;;;;7336008;19;162478;-14
2021/12/24 05:16:26;;;;;;;0.80;0.80;;;;;;;;;;7337477;19;154368;-15
2021/12/24 05:22:30;;;;;;;0.68;0.60;;;;;;;;;;7329336;19;162009;-14
2021/12/24 05:25:08;;;;;;;0.70;0.70;;;;;;;;;;7327654;19;162833;-14
2021/12/24 05:27:39;;;;;;;0.63;0.63;;;;;;;;;;7327724;19;154242;-14
2021/12/24 05:30:12;;;;;;;0.80;0.80;;;;;;;;;;7332092;19;153565;-14
2021/12/24 05:32:45;;;;;;;0.70;0.70;;;;;;;;;;7331869;19;161906;-14
2021/12/24 05:35:18;;;;;;;0.73;0.73;;;;;;;;;;7331863;19;162822;-14
2021/12/24 05:37:49;;;;;;;0.70;0.60;;;;;;;;;;7332277;19;154236;-13
2021/12/24 05:40:21;;;;;;;0.90;0.60;;;;;;;;;;7331447;19;153638;-13
2021/12/24 05:42:53;;;;;;;0.60;0.60;;;;;;;;;;7330022;19;161923;-14
2021/12/24 05:45:24;;;;;;;0.55;0.55;;;;;;;;;;7331308;19;162542;-14
2021/12/24 05:48:26;;;;;;;0.73;0.73;;;;;;;;;;7329363;19;154031;-14
2021/12/24 05:51:06;;;;;;;0.70;0.70;;;;;;;;;;7331059;19;153524;-14
2021/12/24 05:53:50;;;;;;;0.65;0.65;;;;;;;;;;7332484;19;162360;-14
2021/12/24 05:56:24;;;;;;;0.70;0.70;;;;;;;;;;7331336;19;162769;-14
2021/12/24 05:59:07;;;;;;;0.57;0.57;;;;;;;;;;7331444;19;154157;-14
2021/12/24 06:01:39;;;;;;;0.60;0.60;;;;;;;;;;7330840;19;153631;-14
2021/12/24 06:04:13;;;;;;;0.65;0.65;;;;;;;;;;7332372;19;161822;-13
2021/12/24 06:06:45;;;;;;;0.65;0.65;;;;;;;;;;7331520;19;162361;-15
2021/12/24 06:09:16;;;;;;;0.60;0.60;;;;;;;;;;7332524;19;153984;-24
2021/12/24 06:11:48;;;;;;;0.77;0.60;;;;;;;;;;7331329;19;153534;-23
2021/12/24 06:14:19;;;;;;;0.68;0.68;;;;;;;;;;7329795;19;161862;-14
2021/12/24 06:16:59;;;;;;;1.35;0.77;;;;;;;;;;7331999;19;162664;-15
2021/12/24 06:19:34;;;;;;;0.80;0.80;;;;;;;;;;7332156;19;153971;-13
2021/12/24 06:22:06;;;;;;;1.83;0.77;;;;;;;;;;7332184;19;153689;-15
2021/12/24 06:24:37;;;;;;;1.40;0.90;;;;;;;;;;7331663;19;162336;-14
2021/12/24 06:27:09;;;;;;;0.60;0.60;;;;;;;;;;7330722;19;162302;-15
2021/12/24 06:29:40;;;;;;;0.63;0.63;;;;;;;;;;7332003;19;153973;-14
2021/12/24 06:32:12;;;;;;;0.80;0.80;;;;;;;;;;7331599;19;153593;-15
2021/12/24 06:34:45;;;;;;;0.57;0.57;;;;;;;;;;7331116;19;161961;-14
2021/12/24 06:37:17;;;;;;;0.60;0.60;;;;;;;;;;7330090;19;162725;-14
2021/12/24 06:39:48;;;;;;;0.70;0.70;;;;;;;;;;7331626;19;154058;-14
2021/12/24 06:42:20;;;;;;;0.70;0.70;;;;;;;;;;7329392;19;153621;-14
2021/12/24 06:44:52;;;;;;;0.63;0.63;;;;;;;;;;7330839;19;161825;-14
2021/12/24 06:47:24;;;;;;;0.50;0.50;;;;;;;;;;7329944;19;162356;-13
2021/12/24 06:49:57;;;;;;;0.70;0.70;;;;;;;;;;7331199;19;154225;-14
2021/12/24 06:52:29;;;;;;;0.60;0.60;;;;;;;;;;7331132;19;153490;-14
2021/12/24 06:55:00;;;;;;;0.80;0.77;;;;;;;;;;7330750;19;162013;-14
2021/12/24 06:57:31;;;;;;;1.27;0.73;;;;;;;;;;7329511;19;162871;-14
2021/12/24 07:00:03;;;;;;;0.65;0.65;;;;;;;;;;7329546;19;154085;-15
2021/12/24 07:02:36;;;;;;;3.40;0.83;;;;;;;;;;7328689;19;153507;-14
2021/12/24 07:05:10;;;;;;;0.80;0.80;;;;;;;;;;7329920;19;161779;-14
2021/12/24 07:07:42;;;;;;;1.17;0.60;;;;;;;;;;7327688;19;162378;-14
2021/12/24 07:10:13;;;;;;;0.77;0.77;;;;;;;;;;7330392;19;153976;-14
2021/12/24 07:12:45;;;;;;;1.25;0.80;;;;;;;;;;7329447;19;153546;-15
2021/12/24 07:15:16;;;;;;;0.90;0.90;;;;;;;;;;7328391;19;161974;-15
2021/12/24 07:17:48;;;;;;;0.60;0.60;;;;;;;;;;7328892;19;162403;-13
2021/12/24 07:20:22;;;;;;;0.70;0.70;;;;;;;;;;7330485;19;153977;-13
2021/12/24 07:22:53;;;;;;;0.73;0.70;;;;;;;;;;7329925;19;153710;-14
2021/12/24 07:25:30;;;;;;;0.70;0.70;;;;;;;;;;7328339;19;161854;-13
2021/12/24 07:28:01;;;;;;;0.75;0.75;;;;;;;;;;7328417;19;162693;-13
2021/12/24 07:30:33;;;;;;;0.70;0.70;;;;;;;;;;7329840;19;154010;-14
2021/12/24 07:33:04;;;;;;;0.70;0.70;;;;;;;;;;7328718;19;154175;-13
2021/12/24 07:35:38;;;;;;;0.80;0.80;;;;;;;;;;7329087;19;161842;-14
2021/12/24 07:38:13;;;;;;;0.93;0.82;;;;;;;;;;7329017;19;162538;-13
2021/12/24 07:40:45;;;;;;;0.70;0.70;;;;;;;;;;7329900;19;154109;-14
2021/12/24 07:43:16;;;;;;;0.70;0.70;;;;;;;;;;7328006;19;154003;-13
2021/12/24 07:45:52;;;;;;;0.68;0.68;;;;;;;;;;7327843;19;133743;-13
2021/12/24 07:48:28;;;;;;;0.88;0.77;;;;;;;;;;7327797;19;162521;-14
2021/12/24 07:53:46;;;;;;;0.98;0.93;;;;;;;;;;7329256;19;153550;-14
2021/12/24 07:56:17;;;;;;;0.70;0.70;;;;;;;;;;7329087;19;161918;-15
2021/12/24 07:58:49;;;;;;;1.13;1.00;;;;;;;;;;7327719;19;162539;-13
2021/12/24 08:01:20;;;;;;;0.90;0.90;;;;;;;;;;7329143;19;153944;-14
2021/12/24 08:03:53;;;;;;;0.80;0.80;;;;;;;;;;7328885;19;153618;-14
2021/12/24 08:06:28;;;;;;;0.70;0.70;;;;;;;;;;7328604;19;161843;-13
2021/12/24 08:08:59;;;;;;;0.88;0.88;;;;;;;;;;7326997;19;162528;-13
2021/12/24 08:11:30;;;;;;;0.80;0.80;;;;;;;;;;7328983;19;153942;-14
2021/12/24 08:14:03;;;;;;;0.80;0.80;;;;;;;;;;7329181;19;153519;-14
2021/12/24 08:16:34;;;;;;;1.00;0.90;;;;;;;;;;7328438;19;161781;-13
2021/12/24 08:19:06;;;;;;;1.00;1.00;;;;;;;;;;7328308;19;162353;-21
2021/12/24 08:21:40;;;;;;;1.15;1.15;;;;;;;;;;7328597;19;154355;-14
2021/12/24 08:24:11;;;;;;;1.25;1.25;;;;;;;;;;7328440;19;153489;-13
2021/12/24 08:26:42;;;;;;;1.40;1.30;;;;;;;;;;7328165;19;161972;-14
2021/12/24 08:29:14;;;;;;;1.10;1.10;;;;;;;;;;7326448;19;162297;-13
2021/12/24 08:31:46;;;;;;;1.42;1.33;;;;;;;;;;7327887;19;153972;-14
2021/12/24 08:34:18;;;;;;;1.40;1.30;;;;;;;;;;7328402;19;153478;-14
2021/12/24 08:36:53;;;;;;;1.20;1.20;;;;;;;;;;7332463;19;162043;-15
2021/12/24 08:39:25;;;;;;;1.02;1.02;;;;;;;;;;7334737;19;162371;-14
2021/12/24 08:41:57;;;;;;;1.20;1.20;;;;;;;;;;7335095;19;154206;-15
2021/12/24 08:44:31;;;;;;;1.10;1.10;;;;;;;;;;7332258;19;153480;-15
2021/12/24 08:47:04;;;;;;;1.10;1.00;;;;;;;;;;7333622;19;161981;-14
2021/12/24 08:49:35;;;;;;;1.40;1.30;;;;;;;;;;7331437;19;162502;-14
2021/12/24 08:52:10;;;;;;;1.10;1.10;;;;;;;;;;7334619;19;154274;-15
2021/12/24 08:54:42;;;;;;;1.40;1.30;;;;;;;;;;7334651;19;153514;-15
2021/12/24 08:57:13;;;;;;;1.40;1.30;;;;;;;;;;7333008;19;161820;-14
2021/12/24 08:59:44;;;;;;;1.30;1.20;;;;;;;;;;7333916;19;162382;-14
2021/12/24 09:02:18;;;;;;;1.17;1.17;;;;;;;;;;7334519;19;154041;-14
2021/12/24 09:04:49;;;;;;;1.08;1.05;;;;;;;;;;7334256;19;153634;-16
2021/12/24 09:07:23;;;;;;;1.40;1.30;;;;;;;;;;7332441;19;161917;-14
2021/12/24 09:09:54;;;;;;;1.10;1.10;;;;;;;;;;7332060;19;162675;-14
2021/12/24 09:12:25;;;;;;;1.00;1.00;;;;;;;;;;7334484;19;154090;-15
2021/12/24 09:14:57;;;;;;;1.42;1.10;;;;;;;;;;7333963;19;153747;-14
2021/12/24 09:17:30;;;;;;;1.30;1.20;;;;;;;;;;7333617;19;162662;-15
2021/12/24 09:20:05;;;;;;;;;;;;;;;;;;7333941;19;162454;-14
2021/12/24 09:22:42;;;;;;;1.48;1.30;;;;;;;;;;7332697;19;154190;-12
2021/12/24 09:25:16;;;;;;;1.70;1.42;;;;;;;;;;7333603;19;153504;-13
2021/12/24 09:27:47;;;;;;;1.33;1.30;;;;;;;;;;7333118;19;161776;-13
2021/12/24 09:30:18;;;;;;;1.20;1.20;;;;;;;;;;7331188;19;162393;-13
2021/12/24 09:32:50;;;;;;;1.50;1.42;;;;;;;;;;7333192;19;153958;-13
2021/12/24 09:35:21;;;;;;;1.27;1.17;;;;;;;;;;7333390;19;153685;-13
2021/12/24 09:37:56;;;;;;;1.02;1.02;;;;;;;;;;7332086;19;162162;-13
2021/12/24 09:40:28;;;;;;;1.20;1.20;;;;;;;;;;7332910;19;162659;-14
2021/12/24 09:43:00;;;;;;;1.10;1.10;;;;;;;;;;7332189;19;153978;-14
2021/12/24 09:45:31;;;;;;;1.38;1.27;;;;;;;;;;7333080;19;154160;-13
2021/12/24 09:48:02;;;;;;;1.27;1.27;;;;;;;;;;7332179;19;162098;-14
2021/12/24 09:50:34;;;;;;;1.20;1.10;;;;;;;;;;7330640;19;162669;-13
2021/12/24 09:53:07;;;;;;;1.10;1.10;;;;;;;;;;7332903;19;153956;-14
2021/12/24 09:55:39;;;;;;;1.23;1.17;;;;;;;;;;7331582;19;153525;-19
2021/12/24 09:58:10;;;;;;;1.20;1.20;;;;;;;;;;7332375;19;161832;-13
2021/12/24 10:00:42;;;;;;;1.25;1.15;;;;;;;;;;7331972;19;162491;-13
2021/12/24 10:03:29;;;;;;;1.33;1.23;;;;;;;;;;7332646;19;153953;-14
2021/12/24 10:06:00;;;;;;;1.35;1.25;;;;;;;;;;7332506;19;153505;-13
2021/12/24 10:08:35;;;;;;;1.00;1.00;;;;;;;;;;7332225;19;162164;-13
2021/12/24 10:11:11;;;;;;;1.00;1.00;;;;;;;;;;7328691;19;162357;-13
2021/12/24 10:13:46;;;;;;;0.98;0.98;;;;;;;;;;7332603;19;153972;-13
2021/12/24 10:16:22;;;;;;;2.35;1.33;;;;;;;;;;7331076;19;153673;-13
2021/12/24 10:18:55;;;;;;;0.95;0.95;;;;;;;;;;7331923;19;162186;-13
2021/12/24 10:21:32;;;;;;;2.15;1.10;;;;;;;;;;7331874;19;162399;-13
2021/12/24 10:24:12;;;;;;;1.42;1.08;;;;;;;;;;7332276;19;154118;-14
2021/12/24 10:26:48;;;;;;;1.13;1.02;;;;;;;;;;7331996;19;153539;-13
2021/12/24 10:29:22;;;;;;;1.85;1.13;;;;;;;;;;7330876;19;161900;-13
2021/12/24 10:31:56;;;;;;;0.90;0.90;;;;;;;;;;7330435;19;162659;-14
2021/12/24 10:34:28;;;;;;;1.05;1.05;;;;;;;;;;7331914;19;154268;-16
2021/12/24 10:37:12;;;;;;;1.10;1.00;;;;;;;;;;7331660;19;153649;-14
2021/12/24 10:39:51;;;;;;;0.93;0.93;;;;;;;;;;7330250;19;161990;-14
2021/12/24 10:42:26;;;;;;;1.05;1.05;;;;;;;;;;7330448;19;162259;-14
2021/12/24 10:45:00;;;;;;;1.00;1.00;;;;;;;;;;7331750;19;154113;-14
2021/12/24 10:47:33;;;;;;;1.40;1.10;;;;;;;;;;7331203;19;154404;-14
2021/12/24 10:50:27;;;;;;;;;;;;;;;;;;7330997;19;161888;-15
2021/12/24 10:53:14;;;;;;;1.30;1.20;;;;;;;;;;7331007;19;162504;-14
2021/12/24 10:55:51;;;;;;;1.15;1.13;;;;;;;;;;7331336;19;153975;-15
2021/12/24 10:58:25;;;;;;;1.08;1.08;;;;;;;;;;7329409;19;153832;-14
2021/12/24 11:00:58;;;;;;;1.23;1.10;;;;;;;;;;7330806;19;161946;-14
2021/12/24 11:03:33;;;;;;;0.88;0.88;;;;;;;;;;7329534;19;162483;-14
2021/12/24 11:06:08;;;;;;;0.95;0.95;;;;;;;;;;7331063;19;154449;-14
2021/12/24 11:08:41;;;;;;;0.80;0.80;;;;;;;;;;7330742;19;153529;-14
2021/12/24 11:11:18;;;;;;;1.17;1.10;;;;;;;;;;7328962;19;161954;-14
2021/12/24 11:13:51;;;;;;;0.93;0.93;;;;;;;;;;7329212;19;162367;-13
2021/12/24 11:16:24;;;;;;;1.27;0.80;;;;;;;;;;7330623;19;154222;-13
2021/12/24 11:19:01;;;;;;;0.98;0.98;;;;;;;;;;7330311;19;153557;-12
2021/12/24 11:21:34;;;;;;;3.10;1.23;;;;;;;;;;7330083;19;161821;-15
2021/12/24 11:24:07;;;;;;;1.20;1.10;;;;;;;;;;7329809;19;162514;-14
2021/12/24 11:26:50;;;;;;;1.10;1.00;;;;;;;;;;7330309;19;154081;-14
2021/12/24 11:29:22;;;;;;;1.02;1.00;;;;;;;;;;7330206;19;153880;-14
2021/12/24 11:31:53;;;;;;;0.95;0.95;;;;;;;;;;7326733;19;161658;-14
2021/12/24 11:34:25;;;;;;;0.95;0.88;;;;;;;;;;7329689;19;162550;-15
2021/12/24 11:36:56;;;;;;;0.88;0.88;;;;;;;;;;7330130;19;154308;-15
2021/12/24 11:39:28;;;;;;;1.10;1.00;;;;;;;;;;7329857;19;153483;-14
2021/12/24 11:42:03;;;;;;;1.17;1.08;;;;;;;;;;7329478;19;162163;-15
2021/12/24 11:44:34;;;;;;;0.80;0.80;;;;;;;;;;7329243;19;162372;-15
2021/12/24 11:47:07;;;;;;;1.23;1.13;;;;;;;;;;7329735;19;153922;-18
2021/12/24 11:49:38;;;;;;;0.80;0.80;;;;;;;;;;7329842;19;153499;-14
2021/12/24 11:52:10;;;;;;;1.92;1.20;;;;;;;;;;7327061;19;162040;-13
2021/12/24 11:54:42;;;;;;;0.90;0.90;;;;;;;;;;7329017;19;162564;-14
2021/12/24 11:57:22;;;;;;;0.80;0.80;;;;;;;;;;7329597;19;154015;-14
2021/12/24 11:59:54;;;;;;;1.17;0.93;;;;;;;;;;7329470;19;153549;-15
2021/12/24 12:02:40;;;;;;;0.82;0.70;;;;;;;;;;7328888;19;163305;-15
2021/12/24 12:05:22;;;;;;;0.70;0.70;;;;;;;;;;7328848;19;162536;-15
2021/12/24 12:07:55;;;;;;;0.80;0.80;;;;;;;;;;7328979;19;154027;-14
2021/12/24 12:11:02;;;;;;;0.95;0.70;;;;;;;;;;7331782;19;153702;-14
2021/12/24 12:13:46;;;;;;;0.98;0.90;;;;;;;;;;7335005;19;161809;-14
2021/12/24 12:16:20;;;;;;;0.90;0.82;;;;;;;;;;7335309;19;162654;-15
2021/12/24 12:19:12;;;;;;;0.80;0.80;;;;;;;;;;7335817;19;154187;-14
2021/12/24 12:22:11;;;;;;;0.88;0.80;;;;;;;;;;7335501;19;154072;-14
2021/12/24 12:27:39;;;;;;;1.30;1.20;;;;;;;;;;7335077;19;162468;-14
2021/12/24 12:30:29;;;;;;;0.90;0.82;;;;;;;;;;7335442;19;154176;-15
2021/12/24 12:33:10;;;;;;;1.30;1.20;;;;;;;;;;7333179;19;153833;-14
2021/12/24 12:35:45;;;;;;;1.10;1.00;;;;;;;;;;7334902;19;161927;-14
2021/12/24 12:38:33;;;;;;;1.02;1.02;;;;;;;;;;7334504;19;162378;-14
2021/12/24 12:41:30;;;;;;;0.90;0.90;;;;;;;;;;7335022;19;154219;-14
2021/12/24 12:44:04;;;;;;;1.25;1.17;;;;;;;;;;7332054;19;153296;-13
2021/12/24 12:46:41;;;;;;;0.90;0.90;;;;;;;;;;7333813;19;161820;-14
2021/12/24 12:49:15;;;;;;;0.88;0.88;;;;;;;;;;7334347;19;162166;-15
2021/12/24 12:51:52;;;;;;;1.02;1.00;;;;;;;;;;7334114;19;154691;-15
2021/12/24 12:54:37;;;;;;;1.17;1.13;;;;;;;;;;7333414;19;153500;-14
2021/12/24 12:57:15;;;;;;;1.42;1.00;;;;;;;;;;7334370;19;161976;-14
2021/12/24 13:00:18;;;;;;;0.80;0.80;;;;;;;;;;7333939;19;162392;-14
2021/12/24 13:03:15;;;;;;;0.93;0.90;;;;;;;;;;7334411;19;154043;-15
2021/12/24 13:06:14;;;;;;;1.02;0.90;;;;;;;;;;7334338;19;153630;-15
2021/12/24 13:08:46;;;;;;;1.05;1.00;;;;;;;;;;7333122;19;161780;-14
2021/12/24 13:11:20;;;;;;;0.82;0.77;;;;;;;;;;7333634;19;162533;-15
2021/12/24 13:13:58;;;;;;;1.08;1.05;;;;;;;;;;7334225;19;153994;-14
2021/12/24 13:16:34;;;;;;;0.77;0.77;;;;;;;;;;7334044;19;153680;-14
2021/12/24 13:19:27;;;;;;;1.00;1.00;;;;;;;;;;7333826;19;161953;-14
2021/12/24 13:24:49;;;;;;;1.17;0.95;;;;;;;;;;7333946;19;153966;-14
2021/12/24 13:27:23;;;;;;;0.90;0.90;;;;;;;;;;7333922;19;153524;-14
2021/12/24 13:30:10;;;;;;;1.20;1.10;;;;;;;;;;7333285;19;162125;-14
2021/12/24 13:32:47;;;;;;;0.85;0.85;;;;;;;;;;7331901;19;162451;-14
2021/12/24 13:35:24;;;;;;;0.80;0.80;;;;;;;;;;7333599;19;154054;-14
2021/12/24 13:37:57;;;;;;;0.68;0.68;;;;;;;;;;7333413;19;153744;-14
2021/12/24 13:40:30;;;;;;;1.03;0.90;;;;;;;;;;7331312;19;161783;-15
2021/12/24 13:43:07;;;;;;;0.80;0.80;;;;;;;;;;7331814;19;162517;-14
2021/12/24 13:45:39;;;;;;;0.90;0.90;;;;;;;;;;7333325;19;153984;-18
2021/12/24 13:48:14;;;;;;;0.65;0.65;;;;;;;;;;7333437;19;153786;-15
2021/12/24 13:56:22;;;;;;;0.80;0.80;;;;;;;;;;7333246;19;154109;-14
2021/12/24 13:58:55;;;;;;;0.98;0.90;;;;;;;;;;7331982;19;153508;-14
2021/12/24 14:01:28;;;;;;;1.02;0.70;;;;;;;;;;7332745;19;161920;-13
2021/12/24 14:04:01;;;;;;;0.82;0.80;;;;;;;;;;7332866;19;162578;-15
2021/12/24 14:06:39;;;;;;;1.05;0.82;;;;;;;;;;7333182;19;153974;-14
2021/12/24 14:09:11;;;;;;;1.13;0.80;;;;;;;;;;7333056;19;153291;-14
2021/12/24 14:11:44;;;;;;;0.85;0.85;;;;;;;;;;7332821;19;161773;-15
2021/12/24 14:14:20;;;;;;;0.80;0.80;;;;;;;;;;7328803;19;162503;-14
2021/12/24 14:17:07;;;;;;;1.05;1.00;;;;;;;;;;7332669;19;154139;-14
2021/12/24 14:19:48;;;;;;;1.45;0.85;;;;;;;;;;7332918;19;153623;-14
2021/12/24 14:22:23;;;;;;;0.85;0.82;;;;;;;;;;7331179;19;161837;-16
2021/12/24 14:24:59;;;;;;;0.77;0.77;;;;;;;;;;7332183;19;162356;-14
2021/12/24 14:27:32;;;;;;;0.80;0.80;;;;;;;;;;7332459;19;154013;-14
2021/12/24 14:30:07;;;;;;;0.90;0.90;;;;;;;;;;7332265;19;153605;-15
2021/12/24 14:32:45;;;;;;;0.80;0.80;;;;;;;;;;7329602;19;161816;-15
2021/12/24 14:35:20;;;;;;;0.80;0.80;;;;;;;;;;7330349;19;162867;-15
2021/12/24 14:38:00;;;;;;;0.80;0.80;;;;;;;;;;7331092;19;154164;-14
2021/12/24 14:40:34;;;;;;;0.80;0.80;;;;;;;;;;7330926;19;153704;-14
2021/12/24 14:43:13;;;;;;;0.70;0.70;;;;;;;;;;7329068;19;162027;-14
2021/12/24 14:45:45;;;;;;;0.80;0.75;;;;;;;;;;7331567;19;162526;-15
2021/12/24 14:48:21;;;;;;;0.65;0.65;;;;;;;;;;7332073;19;153947;-14
2021/12/24 14:50:54;;;;;;;1.05;0.80;;;;;;;;;;7331923;19;153963;-15
2021/12/24 14:53:30;;;;;;;0.73;0.73;;;;;;;;;;7330213;19;161806;-14
2021/12/24 14:56:08;;;;;;;1.35;0.80;;;;;;;;;;7331352;19;162514;-15
2021/12/24 14:58:44;;;;;;;0.63;0.63;;;;;;;;;;7331770;19;154235;-15
2021/12/24 15:01:19;;;;;;;1.90;0.90;;;;;;;;;;7331674;19;153548;-15
2021/12/24 15:03:58;;;;;;;0.70;0.70;;;;;;;;;;7331094;19;163048;-14
2021/12/24 15:06:31;;;;;;;2.10;0.70;;;;;;;;;;7331063;19;162546;-14
2021/12/24 15:09:27;;;;;;;0.82;0.82;;;;;;;;;;7331542;19;153923;-21
2021/12/24 15:11:59;;;;;;;0.70;0.70;;;;;;;;;;7331405;19;153520;-14
2021/12/24 15:14:30;;;;;;;0.60;0.60;;;;;;;;;;7328479;19;161958;-14
2021/12/24 15:17:03;;;;;;;1.15;0.70;;;;;;;;;;7330755;19;162599;-15
2021/12/24 15:19:37;;;;;;;1.10;1.00;;;;;;;;;;7330927;19;154457;-14
2021/12/24 15:22:08;;;;;;;0.65;0.65;;;;;;;;;;7330804;19;153599;-14
2021/12/24 15:24:45;;;;;;;0.77;0.63;;;;;;;;;;7330375;19;161965;-15
2021/12/24 15:27:20;;;;;;;0.63;0.60;;;;;;;;;;7330459;19;162590;-15
2021/12/24 15:29:51;;;;;;;1.23;0.70;;;;;;;;;;7330912;19;153966;-15
2021/12/24 15:32:22;;;;;;;0.82;0.70;;;;;;;;;;7330783;19;153579;-15
2021/12/24 15:34:53;;;;;;;1.48;0.65;;;;;;;;;;7327823;19;161958;-15
2021/12/24 15:37:27;;;;;;;0.68;0.68;;;;;;;;;;7330042;19;162379;-15
2021/12/24 15:40:02;;;;;;;0.80;0.75;;;;;;;;;;7329507;19;154067;-15
2021/12/24 15:42:33;;;;;;;0.88;0.80;;;;;;;;;;7329569;19;153701;-15
2021/12/24 15:45:08;;;;;;;1.38;0.70;;;;;;;;;;7329355;19;162096;-15
2021/12/24 15:47:39;;;;;;;0.67;0.67;;;;;;;;;;7329710;19;162371;-15
2021/12/24 15:50:11;;;;;;;0.45;0.45;;;;;;;;;;7330188;19;154108;-14
2021/12/24 15:52:45;;;;;;;0.95;0.70;;;;;;;;;;7329865;19;153709;-15
2021/12/24 15:55:19;;;;;;;0.63;0.63;;;;;;;;;;7327023;19;162140;-15
2021/12/24 15:57:53;;;;;;;1.55;0.80;;;;;;;;;;7329438;19;162671;-16
2021/12/24 16:00:29;;;;;;;1.33;0.80;;;;;;;;;;7329546;19;154682;-15
2021/12/24 16:03:02;;;;;;;0.55;0.47;;;;;;;;;;7329600;19;153725;-16
2021/12/24 16:05:34;;;;;;;0.80;0.60;;;;;;;;;;7329154;19;162066;-22
2021/12/24 16:08:06;;;;;;;0.80;0.80;;;;;;;;;;7329143;19;162363;-15
2021/12/24 16:10:40;;;;;;;1.58;0.57;;;;;;;;;;7328272;19;154411;-16
2021/12/24 16:13:12;;;;;;;2.05;0.75;;;;;;;;;;7327883;19;153729;-15
2021/12/24 16:15:46;;;;;;;0.60;0.60;;;;;;;;;;7324991;19;162010;-15
2021/12/24 16:18:21;;;;;;;0.50;0.50;;;;;;;;;;7327519;19;162557;-15
2021/12/24 16:20:54;;;;;;;0.93;0.70;;;;;;;;;;7329190;19;154088;-15
2021/12/24 16:23:26;;;;;;;0.80;0.80;;;;;;;;;;7328824;19;153784;-16
2021/12/24 16:26:00;;;;;;;1.10;0.60;;;;;;;;;;7328548;19;161970;-13
2021/12/24 16:28:36;;;;;;;0.70;0.70;;;;;;;;;;7328984;19;162377;-13
2021/12/24 16:31:08;;;;;;;;;;;;;;;;;;7328058;19;154102;-15
2021/12/24 16:33:39;;;;;;;0.47;0.47;;;;;;;;;;7328619;19;153504;-15
2021/12/24 16:36:14;;;;;;;0.63;0.63;;;;;;;;;;7327678;19;161766;-14
2021/12/24 16:38:46;;;;;;;1.30;0.65;;;;;;;;;;7328015;19;162457;-14
2021/12/24 16:41:23;;;;;;;0.65;0.65;;;;;;;;;;7328435;19;154043;-14
2021/12/24 16:43:54;;;;;;;0.63;0.60;;;;;;;;;;7325826;19;153517;-14